sensor_id;sensor_type;location;lat;lon;timestamp;pressure;altitude;pressure_sealevel;temperature;humidity
83483;BME280;73420;32.678;-85.380;2023-12-22T00:01:17;99770.84;;;19.66;13.96
83483;BME280;73420;32.678;-85.380;2023-12-22T00:03:42;99775.81;;;20.16;14.44
83483;BME280;73420;32.678;-85.380;2023-12-22T00:06:07;99780.61;;;20.04;15.19
83483;BME280;73420;32.678;-85.380;2023-12-22T00:08:32;99790.30;;;19.87;15.62
83483;BME280;73420;32.678;-85.380;2023-12-22T00:10:58;99799.29;;;19.68;15.85
83483;BME280;73420;32.678;-85.380;2023-12-22T00:13:24;99801.57;;;19.79;15.46
83483;BME280;73420;32.678;-85.380;2023-12-22T00:15:48;99805.74;;;19.72;14.86
83483;BME280;73420;32.678;-85.380;2023-12-22T00:18:14;99808.45;;;19.73;14.37
83483;BME280;73420;32.678;-85.380;2023-12-22T00:20:40;99816.00;;;19.76;14.74
83483;BME280;73420;32.678;-85.380;2023-12-22T00:23:05;99815.05;;;19.46;14.37
83483;BME280;73420;32.678;-85.380;2023-12-22T00:25:36;99807.67;;;19.53;16.39
83483;BME280;73420;32.678;-85.380;2023-12-22T00:27:56;99801.90;;;19.49;16.22
83483;BME280;73420;32.678;-85.380;2023-12-22T00:30:22;99801.23;;;19.27;15.41
83483;BME280;73420;32.678;-85.380;2023-12-22T00:32:47;99807.96;;;19.10;15.23
83483;BME280;73420;32.678;-85.380;2023-12-22T00:35:13;99815.08;;;18.99;15.17
83483;BME280;73420;32.678;-85.380;2023-12-22T00:37:39;99812.11;;;19.01;15.51
83483;BME280;73420;32.678;-85.380;2023-12-22T00:40:06;99810.68;;;19.17;17.14
83483;BME280;73420;32.678;-85.380;2023-12-22T00:42:29;99805.93;;;19.49;15.43
83483;BME280;73420;32.678;-85.380;2023-12-22T00:44:54;99807.86;;;18.97;15.07
83483;BME280;73420;32.678;-85.380;2023-12-22T00:47:20;99806.83;;;18.96;15.24
83483;BME280;73420;32.678;-85.380;2023-12-22T00:49:46;99809.48;;;18.97;16.15
83483;BME280;73420;32.678;-85.380;2023-12-22T00:52:11;99810.58;;;19.01;15.52
83483;BME280;73420;32.678;-85.380;2023-12-22T00:54:36;99810.70;;;19.11;15.88
83483;BME280;73420;32.678;-85.380;2023-12-22T00:57:02;99810.42;;;18.55;16.07
83483;BME280;73420;32.678;-85.380;2023-12-22T00:59:27;99800.48;;;18.84;16.46
83483;BME280;73420;32.678;-85.380;2023-12-22T01:01:53;99793.27;;;18.69;16.46
83483;BME280;73420;32.678;-85.380;2023-12-22T01:04:18;99786.50;;;19.13;15.76
83483;BME280;73420;32.678;-85.380;2023-12-22T01:06:44;99778.91;;;18.93;15.34
83483;BME280;73420;32.678;-85.380;2023-12-22T01:09:10;99777.13;;;18.95;15.20
83483;BME280;73420;32.678;-85.380;2023-12-22T01:11:35;99782.01;;;18.89;14.98
83483;BME280;73420;32.678;-85.380;2023-12-22T01:14:04;99785.38;;;19.05;14.18
83483;BME280;73420;32.678;-85.380;2023-12-22T01:16:26;99791.37;;;19.13;13.83
83483;BME280;73420;32.678;-85.380;2023-12-22T01:18:52;99797.27;;;19.24;13.77
83483;BME280;73420;32.678;-85.380;2023-12-22T01:21:18;99803.60;;;19.46;14.65
83483;BME280;73420;32.678;-85.380;2023-12-22T01:23:43;99807.34;;;19.47;13.72
83483;BME280;73420;32.678;-85.380;2023-12-22T01:26:09;99806.57;;;19.51;14.74
83483;BME280;73420;32.678;-85.380;2023-12-22T01:28:34;99810.37;;;19.46;15.17
83483;BME280;73420;32.678;-85.380;2023-12-22T01:31:00;99814.40;;;19.41;14.64
83483;BME280;73420;32.678;-85.380;2023-12-22T01:33:25;99819.20;;;19.12;14.71
83483;BME280;73420;32.678;-85.380;2023-12-22T01:35:51;99824.88;;;18.96;15.98
83483;BME280;73420;32.678;-85.380;2023-12-22T01:38:17;99825.04;;;18.95;16.68
83483;BME280;73420;32.678;-85.380;2023-12-22T01:40:42;99827.13;;;19.15;16.24
83483;BME280;73420;32.678;-85.380;2023-12-22T01:43:07;99826.71;;;18.91;17.04
83483;BME280;73420;32.678;-85.380;2023-12-22T01:45:33;99826.30;;;18.68;17.73
83483;BME280;73420;32.678;-85.380;2023-12-22T01:47:58;99826.20;;;18.79;14.92
83483;BME280;73420;32.678;-85.380;2023-12-22T01:50:30;99830.63;;;19.22;15.45
83483;BME280;73420;32.678;-85.380;2023-12-22T01:52:50;99827.13;;;18.63;15.42
83483;BME280;73420;32.678;-85.380;2023-12-22T01:55:16;99821.97;;;18.33;15.50
83483;BME280;73420;32.678;-85.380;2023-12-22T01:57:41;99817.87;;;18.66;14.79
83483;BME280;73420;32.678;-85.380;2023-12-22T02:00:07;99814.48;;;18.77;15.54
83483;BME280;73420;32.678;-85.380;2023-12-22T02:02:32;99804.75;;;18.68;16.24
83483;BME280;73420;32.678;-85.380;2023-12-22T02:04:58;99802.16;;;18.07;17.07
83483;BME280;73420;32.678;-85.380;2023-12-22T02:07:23;99804.17;;;18.43;15.47
83483;BME280;73420;32.678;-85.380;2023-12-22T02:09:48;99803.14;;;17.84;15.12
83483;BME280;73420;32.678;-85.380;2023-12-22T02:12:14;99801.03;;;18.02;16.12
83483;BME280;73420;32.678;-85.380;2023-12-22T02:14:42;99797.99;;;17.99;16.14
83483;BME280;73420;32.678;-85.380;2023-12-22T02:17:11;99791.67;;;18.03;16.88
83483;BME280;73420;32.678;-85.380;2023-12-22T02:19:40;99781.71;;;18.04;16.36
83483;BME280;73420;32.678;-85.380;2023-12-22T02:22:02;99779.77;;;17.90;16.38
83483;BME280;73420;32.678;-85.380;2023-12-22T02:24:21;99781.87;;;17.56;16.21
83483;BME280;73420;32.678;-85.380;2023-12-22T02:26:47;99779.55;;;17.54;15.71
83483;BME280;73420;32.678;-85.380;2023-12-22T02:29:14;99777.62;;;17.84;14.94
83483;BME280;73420;32.678;-85.380;2023-12-22T02:31:42;99774.48;;;18.09;14.46
83483;BME280;73420;32.678;-85.380;2023-12-22T02:34:07;99773.79;;;18.04;13.77
83483;BME280;73420;32.678;-85.380;2023-12-22T02:36:30;99776.59;;;18.06;14.48
83483;BME280;73420;32.678;-85.380;2023-12-22T02:38:55;99779.47;;;18.48;14.07
83483;BME280;73420;32.678;-85.380;2023-12-22T02:41:19;99785.71;;;18.17;13.61
83483;BME280;73420;32.678;-85.380;2023-12-22T02:43:45;99794.09;;;18.31;14.12
83483;BME280;73420;32.678;-85.380;2023-12-22T02:46:14;99794.85;;;18.83;13.11
83483;BME280;73420;32.678;-85.380;2023-12-22T02:48:36;99793.63;;;18.66;14.04
83483;BME280;73420;32.678;-85.380;2023-12-22T02:51:03;99793.35;;;18.45;14.41
83483;BME280;73420;32.678;-85.380;2023-12-22T02:53:27;99790.67;;;18.39;14.16
83483;BME280;73420;32.678;-85.380;2023-12-22T02:55:53;99792.90;;;18.44;13.95
83483;BME280;73420;32.678;-85.380;2023-12-22T02:58:18;99794.07;;;17.88;14.47
83483;BME280;73420;32.678;-85.380;2023-12-22T03:00:44;99791.81;;;17.74;14.73
83483;BME280;73420;32.678;-85.380;2023-12-22T03:03:10;99787.68;;;18.13;15.08
83483;BME280;73420;32.678;-85.380;2023-12-22T03:05:35;99779.41;;;18.42;14.17
83483;BME280;73420;32.678;-85.380;2023-12-22T03:08:01;99775.77;;;18.26;13.80
83483;BME280;73420;32.678;-85.380;2023-12-22T03:10:29;99773.95;;;18.13;13.95
83483;BME280;73420;32.678;-85.380;2023-12-22T03:12:52;99771.50;;;18.55;14.60
83483;BME280;73420;32.678;-85.380;2023-12-22T03:15:17;99770.25;;;18.35;14.08
83483;BME280;73420;32.678;-85.380;2023-12-22T03:17:43;99768.42;;;18.68;14.23
83483;BME280;73420;32.678;-85.380;2023-12-22T03:20:09;99769.94;;;18.24;14.13
83483;BME280;73420;32.678;-85.380;2023-12-22T03:22:34;99772.23;;;18.44;14.48
83483;BME280;73420;32.678;-85.380;2023-12-22T03:24:59;99781.75;;;18.66;14.23
83483;BME280;73420;32.678;-85.380;2023-12-22T03:27:26;99790.97;;;18.39;15.01
83483;BME280;73420;32.678;-85.380;2023-12-22T03:29:50;99786.67;;;18.32;15.69
83483;BME280;73420;32.678;-85.380;2023-12-22T03:32:16;99782.10;;;18.57;15.71
83483;BME280;73420;32.678;-85.380;2023-12-22T03:34:42;99777.54;;;18.51;15.77
83483;BME280;73420;32.678;-85.380;2023-12-22T03:37:07;99776.28;;;18.44;15.79
83483;BME280;73420;32.678;-85.380;2023-12-22T03:39:34;99771.46;;;17.99;15.86
83483;BME280;73420;32.678;-85.380;2023-12-22T03:41:58;99764.81;;;18.01;16.93
83483;BME280;73420;32.678;-85.380;2023-12-22T03:44:24;99755.98;;;18.13;16.91
83483;BME280;73420;32.678;-85.380;2023-12-22T03:46:49;99749.98;;;18.13;15.92
83483;BME280;73420;32.678;-85.380;2023-12-22T03:49:15;99749.37;;;18.18;15.18
83483;BME280;73420;32.678;-85.380;2023-12-22T03:51:40;99752.64;;;18.31;15.35
83483;BME280;73420;32.678;-85.380;2023-12-22T03:54:05;99752.30;;;18.45;15.02
83483;BME280;73420;32.678;-85.380;2023-12-22T03:56:31;99752.19;;;17.99;14.85
83483;BME280;73420;32.678;-85.380;2023-12-22T03:58:56;99752.54;;;18.29;15.01
83483;BME280;73420;32.678;-85.380;2023-12-22T04:01:22;99757.06;;;18.43;14.80
83483;BME280;73420;32.678;-85.380;2023-12-22T04:03:47;99763.19;;;17.94;15.03
83483;BME280;73420;32.678;-85.380;2023-12-22T04:06:13;99765.30;;;17.83;15.50
83483;BME280;73420;32.678;-85.380;2023-12-22T04:08:38;99765.88;;;17.66;15.90
83483;BME280;73420;32.678;-85.380;2023-12-22T04:11:04;99766.70;;;17.39;15.79
83483;BME280;73420;32.678;-85.380;2023-12-22T04:13:30;99765.39;;;17.29;16.22
83483;BME280;73420;32.678;-85.380;2023-12-22T04:15:56;99763.62;;;17.48;16.68
83483;BME280;73420;32.678;-85.380;2023-12-22T04:18:21;99762.98;;;16.97;17.38
83483;BME280;73420;32.678;-85.380;2023-12-22T04:20:47;99766.65;;;16.90;17.85
83483;BME280;73420;32.678;-85.380;2023-12-22T04:23:12;99766.12;;;16.84;18.51
83483;BME280;73420;32.678;-85.380;2023-12-22T04:25:37;99768.28;;;17.32;18.27
83483;BME280;73420;32.678;-85.380;2023-12-22T04:28:04;99765.06;;;17.07;18.37
83483;BME280;73420;32.678;-85.380;2023-12-22T04:30:28;99763.10;;;16.82;18.00
83483;BME280;73420;32.678;-85.380;2023-12-22T04:32:53;99769.42;;;17.16;16.45
83483;BME280;73420;32.678;-85.380;2023-12-22T04:35:19;99769.22;;;16.98;17.43
83483;BME280;73420;32.678;-85.380;2023-12-22T04:37:44;99760.65;;;17.15;17.01
83483;BME280;73420;32.678;-85.380;2023-12-22T04:40:14;99754.69;;;16.45;18.39
83483;BME280;73420;32.678;-85.380;2023-12-22T04:42:35;99753.95;;;16.77;17.66
83483;BME280;73420;32.678;-85.380;2023-12-22T04:45:00;99745.47;;;16.85;18.47
83483;BME280;73420;32.678;-85.380;2023-12-22T04:47:26;99743.43;;;16.86;18.10
83483;BME280;73420;32.678;-85.380;2023-12-22T04:49:51;99743.55;;;16.96;17.92
83483;BME280;73420;32.678;-85.380;2023-12-22T04:52:17;99740.98;;;16.77;18.04
83483;BME280;73420;32.678;-85.380;2023-12-22T04:54:42;99741.72;;;16.77;17.83
83483;BME280;73420;32.678;-85.380;2023-12-22T04:57:08;99741.68;;;16.68;17.00
83483;BME280;73420;32.678;-85.380;2023-12-22T04:59:34;99741.42;;;16.98;17.49
83483;BME280;73420;32.678;-85.380;2023-12-22T05:01:59;99737.99;;;16.82;17.33
83483;BME280;73420;32.678;-85.380;2023-12-22T05:04:25;99733.35;;;16.46;18.58
83483;BME280;73420;32.678;-85.380;2023-12-22T05:06:50;99727.22;;;16.38;19.00
83483;BME280;73420;32.678;-85.380;2023-12-22T05:09:16;99724.88;;;16.44;17.94
83483;BME280;73420;32.678;-85.380;2023-12-22T05:11:41;99722.83;;;16.42;17.73
83483;BME280;73420;32.678;-85.380;2023-12-22T05:14:07;99720.46;;;16.58;17.54
83483;BME280;73420;32.678;-85.380;2023-12-22T05:16:32;99719.67;;;17.01;18.66
83483;BME280;73420;32.678;-85.380;2023-12-22T05:18:57;99719.88;;;16.99;17.97
83483;BME280;73420;32.678;-85.380;2023-12-22T05:21:23;99719.93;;;16.91;17.74
83483;BME280;73420;32.678;-85.380;2023-12-22T05:23:48;99722.47;;;17.04;17.23
83483;BME280;73420;32.678;-85.380;2023-12-22T05:26:17;99726.82;;;16.95;16.82
83483;BME280;73420;32.678;-85.380;2023-12-22T05:28:39;99725.99;;;16.83;17.44
83483;BME280;73420;32.678;-85.380;2023-12-22T05:31:05;99730.06;;;17.13;17.53
83483;BME280;73420;32.678;-85.380;2023-12-22T05:33:30;99729.58;;;17.17;16.90
83483;BME280;73420;32.678;-85.380;2023-12-22T05:35:56;99730.79;;;17.03;17.86
83483;BME280;73420;32.678;-85.380;2023-12-22T05:38:21;99728.64;;;17.07;17.42
83483;BME280;73420;32.678;-85.380;2023-12-22T05:40:50;99726.04;;;16.95;17.94
83483;BME280;73420;32.678;-85.380;2023-12-22T05:43:12;99720.40;;;16.74;18.58
83483;BME280;73420;32.678;-85.380;2023-12-22T05:45:38;99722.96;;;16.91;18.88
83483;BME280;73420;32.678;-85.380;2023-12-22T05:48:04;99717.59;;;16.99;18.89
83483;BME280;73420;32.678;-85.380;2023-12-22T05:50:29;99709.84;;;16.85;18.97
83483;BME280;73420;32.678;-85.380;2023-12-22T05:52:54;99710.73;;;16.54;18.43
83483;BME280;73420;32.678;-85.380;2023-12-22T05:55:20;99711.61;;;16.99;18.11
83483;BME280;73420;32.678;-85.380;2023-12-22T05:57:45;99710.14;;;16.79;17.61
83483;BME280;73420;32.678;-85.380;2023-12-22T06:00:14;99706.59;;;16.95;18.15
83483;BME280;73420;32.678;-85.380;2023-12-22T06:02:36;99705.70;;;17.18;18.75
83483;BME280;73420;32.678;-85.380;2023-12-22T06:05:02;99703.40;;;16.82;18.94
83483;BME280;73420;32.678;-85.380;2023-12-22T06:07:28;99701.45;;;16.85;18.58
83483;BME280;73420;32.678;-85.380;2023-12-22T06:09:52;99704.92;;;16.80;17.41
83483;BME280;73420;32.678;-85.380;2023-12-22T06:12:18;99710.81;;;17.08;16.92
83483;BME280;73420;32.678;-85.380;2023-12-22T06:14:43;99708.36;;;17.17;17.13
83483;BME280;73420;32.678;-85.380;2023-12-22T06:17:12;99704.86;;;17.12;16.92
83483;BME280;73420;32.678;-85.380;2023-12-22T06:19:35;99703.41;;;16.97;17.06
83483;BME280;73420;32.678;-85.380;2023-12-22T06:21:59;99703.90;;;17.33;17.77
83483;BME280;73420;32.678;-85.380;2023-12-22T06:24:24;99705.06;;;17.09;17.00
83483;BME280;73420;32.678;-85.380;2023-12-22T06:26:50;99706.09;;;17.09;17.09
83483;BME280;73420;32.678;-85.380;2023-12-22T06:29:16;99704.77;;;16.90;18.60
83483;BME280;73420;32.678;-85.380;2023-12-22T06:31:41;99703.29;;;17.08;18.89
83483;BME280;73420;32.678;-85.380;2023-12-22T06:34:06;99702.51;;;16.72;19.06
83483;BME280;73420;32.678;-85.380;2023-12-22T06:36:31;99701.95;;;16.55;19.44
83483;BME280;73420;32.678;-85.380;2023-12-22T06:38:57;99699.17;;;16.30;19.68
83483;BME280;73420;32.678;-85.380;2023-12-22T06:41:25;99699.12;;;16.35;19.07
83483;BME280;73420;32.678;-85.380;2023-12-22T06:43:47;99701.76;;;16.57;18.10
83483;BME280;73420;32.678;-85.380;2023-12-22T06:46:15;99702.35;;;16.70;18.13
83483;BME280;73420;32.678;-85.380;2023-12-22T06:48:38;99703.97;;;16.56;18.67
83483;BME280;73420;32.678;-85.380;2023-12-22T06:51:04;99704.75;;;16.72;17.23
83483;BME280;73420;32.678;-85.380;2023-12-22T06:53:29;99702.93;;;16.93;17.86
83483;BME280;73420;32.678;-85.380;2023-12-22T06:55:55;99695.86;;;16.68;19.01
83483;BME280;73420;32.678;-85.380;2023-12-22T06:58:20;99689.73;;;16.59;18.89
83483;BME280;73420;32.678;-85.380;2023-12-22T07:00:46;99682.84;;;16.44;17.62
83483;BME280;73420;32.678;-85.380;2023-12-22T07:03:11;99678.26;;;16.52;18.38
83483;BME280;73420;32.678;-85.380;2023-12-22T07:05:37;99676.75;;;16.38;18.59
83483;BME280;73420;32.678;-85.380;2023-12-22T07:08:04;99674.56;;;16.80;17.62
83483;BME280;73420;32.678;-85.380;2023-12-22T07:10:28;99673.22;;;16.47;18.37
83483;BME280;73420;32.678;-85.380;2023-12-22T07:12:54;99667.76;;;16.56;17.48
83483;BME280;73420;32.678;-85.380;2023-12-22T07:15:19;99669.68;;;16.66;17.43
83483;BME280;73420;32.678;-85.380;2023-12-22T07:17:45;99667.57;;;16.68;17.47
83483;BME280;73420;32.678;-85.380;2023-12-22T07:20:11;99664.26;;;16.59;17.50
83483;BME280;73420;32.678;-85.380;2023-12-22T07:22:36;99664.10;;;16.70;17.48
83483;BME280;73420;32.678;-85.380;2023-12-22T07:25:01;99663.93;;;16.56;17.46
83483;BME280;73420;32.678;-85.380;2023-12-22T07:27:26;99666.49;;;16.40;17.49
83483;BME280;73420;32.678;-85.380;2023-12-22T07:29:52;99666.58;;;16.67;17.26
83483;BME280;73420;32.678;-85.380;2023-12-22T07:32:18;99662.82;;;16.65;16.77
83483;BME280;73420;32.678;-85.380;2023-12-22T07:34:43;99664.40;;;16.70;17.46
83483;BME280;73420;32.678;-85.380;2023-12-22T07:37:08;99663.67;;;16.52;16.57
83483;BME280;73420;32.678;-85.380;2023-12-22T07:39:33;99661.36;;;16.78;16.91
83483;BME280;73420;32.678;-85.380;2023-12-22T07:42:03;99659.93;;;16.76;17.09
83483;BME280;73420;32.678;-85.380;2023-12-22T07:44:24;99657.49;;;17.07;17.53
83483;BME280;73420;32.678;-85.380;2023-12-22T07:46:56;99657.25;;;17.12;17.75
83483;BME280;73420;32.678;-85.380;2023-12-22T07:49:15;99658.07;;;17.15;17.15
83483;BME280;73420;32.678;-85.380;2023-12-22T07:51:41;99662.62;;;17.21;17.77
83483;BME280;73420;32.678;-85.380;2023-12-22T07:54:08;99659.67;;;16.76;18.75
83483;BME280;73420;32.678;-85.380;2023-12-22T07:56:31;99661.01;;;16.59;17.65
83483;BME280;73420;32.678;-85.380;2023-12-22T07:58:57;99657.37;;;16.77;16.78
83483;BME280;73420;32.678;-85.380;2023-12-22T08:01:23;99654.09;;;16.50;17.30
83483;BME280;73420;32.678;-85.380;2023-12-22T08:03:48;99656.41;;;16.69;17.59
83483;BME280;73420;32.678;-85.380;2023-12-22T08:06:13;99660.56;;;17.05;16.85
83483;BME280;73420;32.678;-85.380;2023-12-22T08:08:38;99664.46;;;16.91;16.99
83483;BME280;73420;32.678;-85.380;2023-12-22T08:11:04;99665.54;;;17.00;15.90
83483;BME280;73420;32.678;-85.380;2023-12-22T08:13:30;99666.39;;;16.77;16.33
83483;BME280;73420;32.678;-85.380;2023-12-22T08:15:55;99663.49;;;16.73;17.57
83483;BME280;73420;32.678;-85.380;2023-12-22T08:18:24;99664.74;;;17.00;17.32
83483;BME280;73420;32.678;-85.380;2023-12-22T08:20:46;99667.61;;;16.86;17.63
83483;BME280;73420;32.678;-85.380;2023-12-22T08:23:11;99667.31;;;16.85;18.14
83483;BME280;73420;32.678;-85.380;2023-12-22T08:25:36;99671.43;;;17.01;17.23
83483;BME280;73420;32.678;-85.380;2023-12-22T08:28:02;99671.58;;;16.88;17.53
83483;BME280;73420;32.678;-85.380;2023-12-22T08:30:28;99675.10;;;16.70;18.93
83483;BME280;73420;32.678;-85.380;2023-12-22T08:32:53;99676.22;;;16.49;19.31
83483;BME280;73420;32.678;-85.380;2023-12-22T08:35:18;99675.04;;;16.42;19.51
83483;BME280;73420;32.678;-85.380;2023-12-22T08:37:44;99675.05;;;16.37;19.71
83483;BME280;73420;32.678;-85.380;2023-12-22T08:40:09;99676.23;;;16.32;19.24
83483;BME280;73420;32.678;-85.380;2023-12-22T08:42:38;99674.96;;;16.24;19.22
83483;BME280;73420;32.678;-85.380;2023-12-22T08:45:00;99679.13;;;16.25;18.15
83483;BME280;73420;32.678;-85.380;2023-12-22T08:47:25;99682.98;;;16.72;17.09
83483;BME280;73420;32.678;-85.380;2023-12-22T08:49:51;99681.21;;;16.27;17.75
83483;BME280;73420;32.678;-85.380;2023-12-22T08:52:16;99682.07;;;16.41;17.99
83483;BME280;73420;32.678;-85.380;2023-12-22T08:54:43;99681.99;;;15.92;18.54
83483;BME280;73420;32.678;-85.380;2023-12-22T08:57:07;99678.86;;;16.30;17.86
83483;BME280;73420;32.678;-85.380;2023-12-22T08:59:33;99676.44;;;16.39;17.83
83483;BME280;73420;32.678;-85.380;2023-12-22T09:01:59;99673.10;;;16.41;18.04
83483;BME280;73420;32.678;-85.380;2023-12-22T09:04:24;99678.31;;;16.12;17.50
83483;BME280;73420;32.678;-85.380;2023-12-22T09:06:50;99676.66;;;16.16;17.07
83483;BME280;73420;32.678;-85.380;2023-12-22T09:09:15;99677.48;;;16.34;17.38
83483;BME280;73420;32.678;-85.380;2023-12-22T09:11:41;99681.36;;;16.04;18.42
83483;BME280;73420;32.678;-85.380;2023-12-22T09:14:06;99672.84;;;15.73;19.27
83483;BME280;73420;32.678;-85.380;2023-12-22T09:16:32;99669.47;;;15.94;18.94
83483;BME280;73420;32.678;-85.380;2023-12-22T09:18:57;99669.34;;;16.07;19.06
83483;BME280;73420;32.678;-85.380;2023-12-22T09:21:23;99669.90;;;15.99;18.24
83483;BME280;73420;32.678;-85.380;2023-12-22T09:23:48;99670.95;;;16.09;18.65
83483;BME280;73420;32.678;-85.380;2023-12-22T09:26:13;99675.15;;;16.26;18.17
83483;BME280;73420;32.678;-85.380;2023-12-22T09:28:39;99680.78;;;16.01;17.91
83483;BME280;73420;32.678;-85.380;2023-12-22T09:31:13;99687.28;;;16.24;17.32
83483;BME280;73420;32.678;-85.380;2023-12-22T09:33:29;99690.02;;;15.99;17.40
83483;BME280;73420;32.678;-85.380;2023-12-22T09:35:55;99693.15;;;16.18;17.72
83483;BME280;73420;32.678;-85.380;2023-12-22T09:38:21;99698.47;;;16.18;17.64
83483;BME280;73420;32.678;-85.380;2023-12-22T09:40:46;99698.93;;;15.95;18.10
83483;BME280;73420;32.678;-85.380;2023-12-22T09:43:13;99697.84;;;15.70;18.47
83483;BME280;73420;32.678;-85.380;2023-12-22T09:45:38;99696.92;;;15.48;18.75
83483;BME280;73420;32.678;-85.380;2023-12-22T09:48:02;99692.77;;;15.64;18.97
83483;BME280;73420;32.678;-85.380;2023-12-22T09:50:28;99685.29;;;15.86;19.44
83483;BME280;73420;32.678;-85.380;2023-12-22T09:52:53;99681.20;;;15.90;19.32
83483;BME280;73420;32.678;-85.380;2023-12-22T09:55:21;99685.75;;;15.58;19.89
83483;BME280;73420;32.678;-85.380;2023-12-22T09:57:45;99691.61;;;15.51;18.62
83483;BME280;73420;32.678;-85.380;2023-12-22T10:00:11;99691.58;;;15.70;17.92
83483;BME280;73420;32.678;-85.380;2023-12-22T10:02:36;99687.96;;;15.49;18.74
83483;BME280;73420;32.678;-85.380;2023-12-22T10:05:01;99686.64;;;15.07;18.96
83483;BME280;73420;32.678;-85.380;2023-12-22T10:07:31;99687.56;;;15.29;18.65
83483;BME280;73420;32.678;-85.380;2023-12-22T10:09:52;99681.51;;;15.31;19.11
83483;BME280;73420;32.678;-85.380;2023-12-22T10:12:17;99679.72;;;15.19;18.87
83483;BME280;73420;32.678;-85.380;2023-12-22T10:14:43;99680.54;;;15.50;18.64
83483;BME280;73420;32.678;-85.380;2023-12-22T10:17:08;99677.24;;;15.66;18.68
83483;BME280;73420;32.678;-85.380;2023-12-22T10:19:39;99680.36;;;15.71;18.43
83483;BME280;73420;32.678;-85.380;2023-12-22T10:21:58;99685.39;;;15.45;18.11
83483;BME280;73420;32.678;-85.380;2023-12-22T10:24:38;99685.44;;;15.64;18.24
83483;BME280;73420;32.678;-85.380;2023-12-22T10:26:49;99680.38;;;15.31;19.04
83483;BME280;73420;32.678;-85.380;2023-12-22T10:29:14;99674.93;;;15.35;18.77
83483;BME280;73420;32.678;-85.380;2023-12-22T10:31:41;99675.63;;;15.41;19.34
83483;BME280;73420;32.678;-85.380;2023-12-22T10:34:05;99678.40;;;15.52;18.54
83483;BME280;73420;32.678;-85.380;2023-12-22T10:36:31;99684.70;;;15.22;18.69
83483;BME280;73420;32.678;-85.380;2023-12-22T10:38:57;99686.05;;;15.41;18.95
83483;BME280;73420;32.678;-85.380;2023-12-22T10:41:22;99685.44;;;15.29;18.97
83483;BME280;73420;32.678;-85.380;2023-12-22T10:43:52;99682.35;;;15.24;19.22
83483;BME280;73420;32.678;-85.380;2023-12-22T10:46:13;99679.32;;;15.06;19.15
83483;BME280;73420;32.678;-85.380;2023-12-22T10:48:39;99680.27;;;14.99;19.48
83483;BME280;73420;32.678;-85.380;2023-12-22T10:51:09;99679.55;;;15.30;19.42
83483;BME280;73420;32.678;-85.380;2023-12-22T10:53:30;99680.41;;;14.92;19.86
83483;BME280;73420;32.678;-85.380;2023-12-22T10:55:55;99683.02;;;14.97;19.67
83483;BME280;73420;32.678;-85.380;2023-12-22T10:58:21;99681.40;;;15.18;20.00
83483;BME280;73420;32.678;-85.380;2023-12-22T11:00:46;99685.35;;;15.10;20.25
83483;BME280;73420;32.678;-85.380;2023-12-22T11:03:15;99685.04;;;14.96;20.47
83483;BME280;73420;32.678;-85.380;2023-12-22T11:05:37;99680.50;;;15.08;20.37
83483;BME280;73420;32.678;-85.380;2023-12-22T11:08:09;99682.60;;;15.10;20.55
83483;BME280;73420;32.678;-85.380;2023-12-22T11:10:28;99686.93;;;14.79;20.42
83483;BME280;73420;32.678;-85.380;2023-12-22T11:12:54;99693.28;;;14.90;20.35
83483;BME280;73420;32.678;-85.380;2023-12-22T11:15:19;99697.58;;;15.40;20.70
83483;BME280;73420;32.678;-85.380;2023-12-22T11:17:45;99704.34;;;15.02;20.64
83483;BME280;73420;32.678;-85.380;2023-12-22T11:20:11;99707.64;;;14.66;20.85
83483;BME280;73420;32.678;-85.380;2023-12-22T11:22:36;99704.09;;;14.59;21.03
83483;BME280;73420;32.678;-85.380;2023-12-22T11:25:00;99701.02;;;14.80;20.95
83483;BME280;73420;32.678;-85.380;2023-12-22T11:27:26;99702.85;;;14.70;20.73
83483;BME280;73420;32.678;-85.380;2023-12-22T11:29:51;99698.52;;;14.82;20.69
83483;BME280;73420;32.678;-85.380;2023-12-22T11:32:20;99700.31;;;14.79;20.57
83483;BME280;73420;32.678;-85.380;2023-12-22T11:34:43;99703.43;;;15.01;21.10
83483;BME280;73420;32.678;-85.380;2023-12-22T11:37:07;99703.46;;;14.93;20.70
83483;BME280;73420;32.678;-85.380;2023-12-22T11:39:33;99700.96;;;14.61;21.29
83483;BME280;73420;32.678;-85.380;2023-12-22T11:41:59;99702.95;;;14.36;21.44
83483;BME280;73420;32.678;-85.380;2023-12-22T11:44:28;99703.59;;;14.61;21.06
83483;BME280;73420;32.678;-85.380;2023-12-22T11:46:49;99702.12;;;14.75;21.08
83483;BME280;73420;32.678;-85.380;2023-12-22T11:49:15;99708.15;;;14.95;20.63
83483;BME280;73420;32.678;-85.380;2023-12-22T11:51:40;99710.85;;;14.52;20.84
83483;BME280;73420;32.678;-85.380;2023-12-22T11:56:31;99703.20;;;14.40;21.56
83483;BME280;73420;32.678;-85.380;2023-12-22T11:58:57;99702.47;;;14.09;21.97
83483;BME280;73420;32.678;-85.380;2023-12-22T12:01:23;99704.41;;;14.53;21.46
83483;BME280;73420;32.678;-85.380;2023-12-22T12:03:50;99708.94;;;14.55;21.76
83483;BME280;73420;32.678;-85.380;2023-12-22T12:06:22;99717.32;;;14.30;21.45
83483;BME280;73420;32.678;-85.380;2023-12-22T12:08:41;99725.52;;;14.42;21.06
83483;BME280;73420;32.678;-85.380;2023-12-22T12:11:04;99724.98;;;14.55;21.65
83483;BME280;73420;32.678;-85.380;2023-12-22T12:13:31;99729.92;;;14.60;21.47
83483;BME280;73420;32.678;-85.380;2023-12-22T12:15:56;99729.88;;;14.32;21.67
83483;BME280;73420;32.678;-85.380;2023-12-22T12:18:22;99726.67;;;14.09;22.26
83483;BME280;73420;32.678;-85.380;2023-12-22T12:20:47;99729.73;;;14.21;21.72
83483;BME280;73420;32.678;-85.380;2023-12-22T12:23:12;99728.84;;;14.60;21.54
83483;BME280;73420;32.678;-85.380;2023-12-22T12:25:37;99725.51;;;14.29;21.67
83483;BME280;73420;32.678;-85.380;2023-12-22T12:28:04;99728.15;;;14.38;21.61
83483;BME280;73420;32.678;-85.380;2023-12-22T12:30:28;99732.82;;;14.11;22.12
83483;BME280;73420;32.678;-85.380;2023-12-22T12:33:00;99729.20;;;14.29;21.96